Terminal Aerodrome Forecast
Issued by NWS

Home | Current Version | Previous Version | Text Only | Print | Product List | Glossary Off
Versions: 1 2 3 4 5 6 7 8 9 10 11 12 13 14

000
FTUS43 KICT 272329
TAFHUT
TAF
KHUT 272329Z 2800/2824 VRB05KT P6SM FEW080
     FM280900 21008KT P6SM SCT080
     FM281500 26012G20KT P6SM SCT060
     FM282200 01011G21KT P6SM VCTS BKN060CB=

USA.gov is the U.S. government's official web portal to all federal, state and local government web resources and services.